sensor_id;sensor_type;location;lat;lon;timestamp;P1;durP1;ratioP1;P2;durP2;ratioP2
73276;SDS011;61501;43.316;5.372;2023-02-01T00:00:18;15.95;;;11.90;;
73276;SDS011;61501;43.316;5.372;2023-02-01T00:02:44;15.90;;;12.43;;
73276;SDS011;61501;43.316;5.372;2023-02-01T00:05:10;12.80;;;10.10;;
73276;SDS011;61501;43.316;5.372;2023-02-01T00:07:36;13.18;;;9.45;;
73276;SDS011;61501;43.316;5.372;2023-02-01T00:10:03;11.77;;;8.32;;
73276;SDS011;61501;43.316;5.372;2023-02-01T00:12:30;11.02;;;8.30;;
73276;SDS011;61501;43.316;5.372;2023-02-01T00:14:56;11.50;;;8.77;;
73276;SDS011;61501;43.316;5.372;2023-02-01T00:17:22;12.77;;;8.80;;
73276;SDS011;61501;43.316;5.372;2023-02-01T00:19:48;12.27;;;8.45;;
73276;SDS011;61501;43.316;5.372;2023-02-01T00:22:14;11.05;;;8.88;;
73276;SDS011;61501;43.316;5.372;2023-02-01T00:24:39;11.00;;;8.43;;
73276;SDS011;61501;43.316;5.372;2023-02-01T00:27:05;11.30;;;8.43;;
73276;SDS011;61501;43.316;5.372;2023-02-01T00:29:31;11.45;;;8.88;;
73276;SDS011;61501;43.316;5.372;2023-02-01T00:31:56;16.55;;;10.93;;
73276;SDS011;61501;43.316;5.372;2023-02-01T00:34:22;13.93;;;8.68;;
73276;SDS011;61501;43.316;5.372;2023-02-01T00:36:48;10.95;;;9.18;;
73276;SDS011;61501;43.316;5.372;2023-02-01T00:39:13;12.88;;;9.88;;
73276;SDS011;61501;43.316;5.372;2023-02-01T00:41:40;12.73;;;9.00;;
73276;SDS011;61501;43.316;5.372;2023-02-01T00:44:05;11.45;;;8.60;;
73276;SDS011;61501;43.316;5.372;2023-02-01T00:46:31;11.40;;;8.07;;
73276;SDS011;61501;43.316;5.372;2023-02-01T00:48:57;11.00;;;8.00;;
73276;SDS011;61501;43.316;5.372;2023-02-01T00:51:24;11.05;;;7.97;;
73276;SDS011;61501;43.316;5.372;2023-02-01T00:53:52;7.15;;;6.00;;
73276;SDS011;61501;43.316;5.372;2023-02-01T00:56:18;8.75;;;6.68;;
73276;SDS011;61501;43.316;5.372;2023-02-01T00:58:43;10.23;;;6.90;;
73276;SDS011;61501;43.316;5.372;2023-02-01T01:01:17;7.78;;;6.20;;
73276;SDS011;61501;43.316;5.372;2023-02-01T01:03:45;7.95;;;5.45;;
73276;SDS011;61501;43.316;5.372;2023-02-01T01:06:28;6.68;;;5.50;;
73276;SDS011;61501;43.316;5.372;2023-02-01T01:08:57;8.55;;;5.45;;
73276;SDS011;61501;43.316;5.372;2023-02-01T01:11:25;5.72;;;5.10;;
73276;SDS011;61501;43.316;5.372;2023-02-01T01:13:56;5.65;;;4.55;;
73276;SDS011;61501;43.316;5.372;2023-02-01T01:16:24;7.18;;;5.25;;
73276;SDS011;61501;43.316;5.372;2023-02-01T01:18:51;8.00;;;6.22;;
73276;SDS011;61501;43.316;5.372;2023-02-01T01:21:17;6.55;;;5.43;;
73276;SDS011;61501;43.316;5.372;2023-02-01T01:23:43;6.28;;;5.68;;
73276;SDS011;61501;43.316;5.372;2023-02-01T01:26:12;7.03;;;5.68;;
73276;SDS011;61501;43.316;5.372;2023-02-01T01:28:44;6.90;;;5.05;;
73276;SDS011;61501;43.316;5.372;2023-02-01T01:31:10;8.07;;;5.70;;
73276;SDS011;61501;43.316;5.372;2023-02-01T01:33:37;6.50;;;5.07;;
73276;SDS011;61501;43.316;5.372;2023-02-01T01:36:06;6.00;;;5.40;;
73276;SDS011;61501;43.316;5.372;2023-02-01T01:38:32;6.88;;;5.70;;
73276;SDS011;61501;43.316;5.372;2023-02-01T01:40:58;7.35;;;5.82;;
73276;SDS011;61501;43.316;5.372;2023-02-01T01:43:23;7.65;;;5.88;;
73276;SDS011;61501;43.316;5.372;2023-02-01T01:45:49;6.32;;;5.65;;
73276;SDS011;61501;43.316;5.372;2023-02-01T01:48:17;8.02;;;6.00;;
73276;SDS011;61501;43.316;5.372;2023-02-01T01:51:12;7.75;;;6.22;;
73276;SDS011;61501;43.316;5.372;2023-02-01T01:53:43;7.88;;;6.13;;
73276;SDS011;61501;43.316;5.372;2023-02-01T01:56:13;6.90;;;5.85;;
73276;SDS011;61501;43.316;5.372;2023-02-01T01:58:40;6.63;;;5.53;;
73276;SDS011;61501;43.316;5.372;2023-02-01T02:01:06;7.47;;;5.68;;
73276;SDS011;61501;43.316;5.372;2023-02-01T02:03:33;8.07;;;5.43;;
73276;SDS011;61501;43.316;5.372;2023-02-01T02:06:03;8.18;;;4.85;;
73276;SDS011;61501;43.316;5.372;2023-02-01T02:08:32;7.15;;;4.80;;
73276;SDS011;61501;43.316;5.372;2023-02-01T02:10:58;9.57;;;5.15;;
73276;SDS011;61501;43.316;5.372;2023-02-01T02:13:24;5.68;;;4.50;;
73276;SDS011;61501;43.316;5.372;2023-02-01T02:16:38;5.53;;;4.13;;
73276;SDS011;61501;43.316;5.372;2023-02-01T02:24:56;4.97;;;4.20;;
73276;SDS011;61501;43.316;5.372;2023-02-01T02:44:32;6.68;;;3.75;;
73276;SDS011;61501;43.316;5.372;2023-02-01T02:47:26;4.05;;;3.65;;
73276;SDS011;61501;43.316;5.372;2023-02-01T02:53:09;4.53;;;3.15;;
73276;SDS011;61501;43.316;5.372;2023-02-01T02:56:06;3.42;;;3.13;;
73276;SDS011;61501;43.316;5.372;2023-02-01T02:58:53;5.00;;;3.30;;
73276;SDS011;61501;43.316;5.372;2023-02-01T03:01:38;4.80;;;3.17;;
73276;SDS011;61501;43.316;5.372;2023-02-01T03:04:23;5.97;;;3.08;;
73276;SDS011;61501;43.316;5.372;2023-02-01T03:06:51;8.18;;;3.47;;
73276;SDS011;61501;43.316;5.372;2023-02-01T03:09:19;5.70;;;3.53;;
73276;SDS011;61501;43.316;5.372;2023-02-01T03:11:52;4.60;;;3.22;;
73276;SDS011;61501;43.316;5.372;2023-02-01T03:14:41;3.60;;;2.97;;
73276;SDS011;61501;43.316;5.372;2023-02-01T03:17:11;5.20;;;3.03;;
73276;SDS011;61501;43.316;5.372;2023-02-01T03:19:41;6.07;;;3.60;;
73276;SDS011;61501;43.316;5.372;2023-02-01T03:22:14;3.85;;;3.25;;
73276;SDS011;61501;43.316;5.372;2023-02-01T03:24:55;3.97;;;2.75;;
73276;SDS011;61501;43.316;5.372;2023-02-01T03:27:29;5.70;;;3.10;;
73276;SDS011;61501;43.316;5.372;2023-02-01T03:32:45;4.10;;;2.80;;
73276;SDS011;61501;43.316;5.372;2023-02-01T03:35:36;4.57;;;2.97;;
73276;SDS011;61501;43.316;5.372;2023-02-01T03:38:23;4.53;;;2.78;;
73276;SDS011;61501;43.316;5.372;2023-02-01T03:43:37;4.55;;;2.58;;
73276;SDS011;61501;43.316;5.372;2023-02-01T03:46:17;3.25;;;2.33;;
73276;SDS011;61501;43.316;5.372;2023-02-01T03:48:57;4.53;;;2.47;;
73276;SDS011;61501;43.316;5.372;2023-02-01T03:51:26;2.50;;;2.10;;
73276;SDS011;61501;43.316;5.372;2023-02-01T03:53:52;3.55;;;2.20;;
73276;SDS011;61501;43.316;5.372;2023-02-01T03:56:19;3.63;;;2.20;;
73276;SDS011;61501;43.316;5.372;2023-02-01T03:58:47;3.13;;;1.95;;
73276;SDS011;61501;43.316;5.372;2023-02-01T04:01:24;2.80;;;1.80;;
73276;SDS011;61501;43.316;5.372;2023-02-01T04:03:51;3.33;;;2.38;;
73276;SDS011;61501;43.316;5.372;2023-02-01T04:06:16;4.72;;;2.38;;
73276;SDS011;61501;43.316;5.372;2023-02-01T04:08:42;3.30;;;2.00;;
73276;SDS011;61501;43.316;5.372;2023-02-01T04:11:08;2.85;;;2.05;;
73276;SDS011;61501;43.316;5.372;2023-02-01T04:13:34;3.03;;;2.17;;
73276;SDS011;61501;43.316;5.372;2023-02-01T04:16:00;3.85;;;2.35;;
73276;SDS011;61501;43.316;5.372;2023-02-01T04:18:25;2.70;;;1.88;;
73276;SDS011;61501;43.316;5.372;2023-02-01T04:20:51;2.78;;;2.10;;
73276;SDS011;61501;43.316;5.372;2023-02-01T04:23:17;2.92;;;2.20;;
73276;SDS011;61501;43.316;5.372;2023-02-01T04:25:42;3.58;;;2.58;;
73276;SDS011;61501;43.316;5.372;2023-02-01T04:28:08;2.53;;;2.25;;
73276;SDS011;61501;43.316;5.372;2023-02-01T04:30:34;4.40;;;2.10;;
73276;SDS011;61501;43.316;5.372;2023-02-01T04:33:00;3.30;;;2.00;;
73276;SDS011;61501;43.316;5.372;2023-02-01T04:35:28;3.90;;;2.15;;
73276;SDS011;61501;43.316;5.372;2023-02-01T04:37:54;3.60;;;2.20;;
73276;SDS011;61501;43.316;5.372;2023-02-01T04:40:19;4.50;;;2.33;;
73276;SDS011;61501;43.316;5.372;2023-02-01T04:42:45;2.90;;;2.20;;
73276;SDS011;61501;43.316;5.372;2023-02-01T04:45:10;3.17;;;2.40;;
73276;SDS011;61501;43.316;5.372;2023-02-01T04:47:36;2.80;;;2.30;;
73276;SDS011;61501;43.316;5.372;2023-02-01T04:50:02;2.80;;;2.30;;
73276;SDS011;61501;43.316;5.372;2023-02-01T04:52:28;3.28;;;2.00;;
73276;SDS011;61501;43.316;5.372;2023-02-01T04:54:53;2.60;;;2.00;;
73276;SDS011;61501;43.316;5.372;2023-02-01T04:57:22;2.83;;;2.05;;
73276;SDS011;61501;43.316;5.372;2023-02-01T04:59:48;3.22;;;2.30;;
73276;SDS011;61501;43.316;5.372;2023-02-01T05:02:15;3.70;;;2.00;;
73276;SDS011;61501;43.316;5.372;2023-02-01T05:04:40;4.70;;;2.53;;
73276;SDS011;61501;43.316;5.372;2023-02-01T05:07:06;3.42;;;2.33;;
73276;SDS011;61501;43.316;5.372;2023-02-01T05:09:31;2.80;;;2.20;;
73276;SDS011;61501;43.316;5.372;2023-02-01T05:11:57;3.35;;;2.15;;
73276;SDS011;61501;43.316;5.372;2023-02-01T05:14:41;3.05;;;2.00;;
73276;SDS011;61501;43.316;5.372;2023-02-01T05:17:07;3.63;;;2.20;;
73276;SDS011;61501;43.316;5.372;2023-02-01T05:19:33;4.20;;;2.40;;
73276;SDS011;61501;43.316;5.372;2023-02-01T05:21:58;3.40;;;2.35;;
73276;SDS011;61501;43.316;5.372;2023-02-01T05:24:24;5.22;;;2.40;;
73276;SDS011;61501;43.316;5.372;2023-02-01T05:26:52;5.07;;;2.70;;
73276;SDS011;61501;43.316;5.372;2023-02-01T05:29:17;4.85;;;2.75;;
73276;SDS011;61501;43.316;5.372;2023-02-01T05:31:47;4.05;;;2.80;;
73276;SDS011;61501;43.316;5.372;2023-02-01T05:34:13;4.57;;;2.60;;
73276;SDS011;61501;43.316;5.372;2023-02-01T05:36:39;4.32;;;3.15;;
73276;SDS011;61501;43.316;5.372;2023-02-01T05:39:05;5.38;;;3.00;;
73276;SDS011;61501;43.316;5.372;2023-02-01T05:41:30;4.35;;;3.20;;
73276;SDS011;61501;43.316;5.372;2023-02-01T05:43:56;6.70;;;3.30;;
73276;SDS011;61501;43.316;5.372;2023-02-01T05:46:22;6.25;;;3.95;;
73276;SDS011;61501;43.316;5.372;2023-02-01T05:48:48;5.65;;;3.53;;
73276;SDS011;61501;43.316;5.372;2023-02-01T05:51:13;5.70;;;3.45;;
73276;SDS011;61501;43.316;5.372;2023-02-01T05:53:39;4.65;;;3.45;;
73276;SDS011;61501;43.316;5.372;2023-02-01T05:56:05;4.93;;;3.33;;
73276;SDS011;61501;43.316;5.372;2023-02-01T05:58:31;5.90;;;3.50;;
73276;SDS011;61501;43.316;5.372;2023-02-01T06:01:00;5.32;;;3.55;;
73276;SDS011;61501;43.316;5.372;2023-02-01T06:03:27;5.60;;;3.15;;
73276;SDS011;61501;43.316;5.372;2023-02-01T06:05:53;5.32;;;3.33;;
73276;SDS011;61501;43.316;5.372;2023-02-01T06:08:18;8.07;;;3.95;;
73276;SDS011;61501;43.316;5.372;2023-02-01T06:10:44;5.97;;;3.20;;
73276;SDS011;61501;43.316;5.372;2023-02-01T06:13:10;6.70;;;3.40;;
73276;SDS011;61501;43.316;5.372;2023-02-01T06:15:35;8.25;;;4.00;;
73276;SDS011;61501;43.316;5.372;2023-02-01T06:18:02;10.00;;;3.97;;
73276;SDS011;61501;43.316;5.372;2023-02-01T06:20:29;8.88;;;3.85;;
73276;SDS011;61501;43.316;5.372;2023-02-01T06:22:55;6.28;;;4.38;;
73276;SDS011;61501;43.316;5.372;2023-02-01T06:25:20;6.72;;;4.03;;
73276;SDS011;61501;43.316;5.372;2023-02-01T06:27:46;6.75;;;3.92;;
73276;SDS011;61501;43.316;5.372;2023-02-01T06:33:33;6.43;;;3.40;;
73276;SDS011;61501;43.316;5.372;2023-02-01T06:36:00;8.25;;;3.90;;
73276;SDS011;61501;43.316;5.372;2023-02-01T06:38:27;4.80;;;3.30;;
73276;SDS011;61501;43.316;5.372;2023-02-01T06:40:53;5.32;;;2.67;;
73276;SDS011;61501;43.316;5.372;2023-02-01T06:43:20;4.70;;;3.20;;
73276;SDS011;61501;43.316;5.372;2023-02-01T06:45:47;5.18;;;2.83;;
73276;SDS011;61501;43.316;5.372;2023-02-01T06:48:12;5.13;;;2.70;;
73276;SDS011;61501;43.316;5.372;2023-02-01T06:50:38;7.03;;;3.17;;
73276;SDS011;61501;43.316;5.372;2023-02-01T06:53:03;6.28;;;3.25;;
73276;SDS011;61501;43.316;5.372;2023-02-01T06:55:29;8.00;;;3.30;;
73276;SDS011;61501;43.316;5.372;2023-02-01T06:57:55;8.75;;;3.45;;
73276;SDS011;61501;43.316;5.372;2023-02-01T07:00:24;6.20;;;2.75;;
73276;SDS011;61501;43.316;5.372;2023-02-01T07:02:50;5.18;;;2.60;;
73276;SDS011;61501;43.316;5.372;2023-02-01T07:05:16;5.60;;;2.70;;
73276;SDS011;61501;43.316;5.372;2023-02-01T07:07:42;10.30;;;2.88;;
73276;SDS011;61501;43.316;5.372;2023-02-01T07:10:07;6.07;;;2.45;;
73276;SDS011;61501;43.316;5.372;2023-02-01T07:12:34;6.80;;;2.50;;
73276;SDS011;61501;43.316;5.372;2023-02-01T07:15:00;7.45;;;2.30;;
73276;SDS011;61501;43.316;5.372;2023-02-01T07:17:27;7.63;;;2.38;;
73276;SDS011;61501;43.316;5.372;2023-02-01T07:19:54;4.80;;;2.20;;
73276;SDS011;61501;43.316;5.372;2023-02-01T07:22:20;10.32;;;2.25;;
73276;SDS011;61501;43.316;5.372;2023-02-01T07:24:46;5.00;;;2.13;;
73276;SDS011;61501;43.316;5.372;2023-02-01T07:27:12;4.50;;;1.80;;
73276;SDS011;61501;43.316;5.372;2023-02-01T07:29:38;9.27;;;2.60;;
73276;SDS011;61501;43.316;5.372;2023-02-01T07:32:03;10.05;;;3.10;;
73276;SDS011;61501;43.316;5.372;2023-02-01T07:34:29;4.47;;;2.08;;
73276;SDS011;61501;43.316;5.372;2023-02-01T07:36:58;9.10;;;2.13;;
73276;SDS011;61501;43.316;5.372;2023-02-01T07:39:24;6.55;;;2.22;;
73276;SDS011;61501;43.316;5.372;2023-02-01T07:41:53;6.18;;;2.22;;
73276;SDS011;61501;43.316;5.372;2023-02-01T07:44:18;3.47;;;1.83;;
73276;SDS011;61501;43.316;5.372;2023-02-01T07:46:47;5.00;;;2.08;;
73276;SDS011;61501;43.316;5.372;2023-02-01T07:49:13;7.93;;;2.10;;
73276;SDS011;61501;43.316;5.372;2023-02-01T07:51:39;4.05;;;2.05;;
73276;SDS011;61501;43.316;5.372;2023-02-01T07:54:05;5.47;;;2.28;;
73276;SDS011;61501;43.316;5.372;2023-02-01T07:56:30;5.38;;;2.00;;
73276;SDS011;61501;43.316;5.372;2023-02-01T07:58:56;5.20;;;2.13;;
73276;SDS011;61501;43.316;5.372;2023-02-01T08:01:25;5.28;;;2.17;;
73276;SDS011;61501;43.316;5.372;2023-02-01T08:06:18;12.23;;;2.30;;
73276;SDS011;61501;43.316;5.372;2023-02-01T08:08:50;4.72;;;1.40;;
73276;SDS011;61501;43.316;5.372;2023-02-01T08:11:17;4.82;;;2.22;;
73276;SDS011;61501;43.316;5.372;2023-02-01T08:13:43;4.22;;;1.63;;
73276;SDS011;61501;43.316;5.372;2023-02-01T08:16:10;6.28;;;2.20;;
73276;SDS011;61501;43.316;5.372;2023-02-01T08:18:39;6.45;;;2.00;;
73276;SDS011;61501;43.316;5.372;2023-02-01T08:23:39;3.03;;;1.67;;
73276;SDS011;61501;43.316;5.372;2023-02-01T08:26:16;7.78;;;2.00;;
73276;SDS011;61501;43.316;5.372;2023-02-01T08:28:44;7.65;;;2.13;;
73276;SDS011;61501;43.316;5.372;2023-02-01T08:31:16;7.20;;;2.03;;
73276;SDS011;61501;43.316;5.372;2023-02-01T08:33:43;3.83;;;1.90;;
73276;SDS011;61501;43.316;5.372;2023-02-01T08:36:12;4.88;;;2.50;;
73276;SDS011;61501;43.316;5.372;2023-02-01T08:38:38;7.43;;;1.92;;
73276;SDS011;61501;43.316;5.372;2023-02-01T08:41:14;3.88;;;1.98;;
73276;SDS011;61501;43.316;5.372;2023-02-01T08:43:42;4.95;;;1.80;;
73276;SDS011;61501;43.316;5.372;2023-02-01T08:46:08;3.00;;;2.15;;
73276;SDS011;61501;43.316;5.372;2023-02-01T08:48:35;12.35;;;2.42;;
73276;SDS011;61501;43.316;5.372;2023-02-01T08:51:05;6.78;;;2.53;;
73276;SDS011;61501;43.316;5.372;2023-02-01T08:53:32;7.18;;;2.47;;
73276;SDS011;61501;43.316;5.372;2023-02-01T08:55:58;7.07;;;2.63;;
73276;SDS011;61501;43.316;5.372;2023-02-01T08:58:25;2.95;;;2.10;;
73276;SDS011;61501;43.316;5.372;2023-02-01T09:00:51;7.15;;;2.50;;
73276;SDS011;61501;43.316;5.372;2023-02-01T09:03:17;5.57;;;2.30;;
73276;SDS011;61501;43.316;5.372;2023-02-01T09:05:43;3.67;;;2.05;;
73276;SDS011;61501;43.316;5.372;2023-02-01T09:08:10;5.03;;;2.15;;
73276;SDS011;61501;43.316;5.372;2023-02-01T09:10:38;9.90;;;2.53;;
73276;SDS011;61501;43.316;5.372;2023-02-01T09:13:04;7.50;;;2.50;;
73276;SDS011;61501;43.316;5.372;2023-02-01T09:15:30;6.68;;;2.38;;
73276;SDS011;61501;43.316;5.372;2023-02-01T09:17:55;8.65;;;2.60;;
73276;SDS011;61501;43.316;5.372;2023-02-01T09:20:21;6.80;;;2.90;;
73276;SDS011;61501;43.316;5.372;2023-02-01T09:22:49;7.28;;;2.33;;
73276;SDS011;61501;43.316;5.372;2023-02-01T09:25:16;7.38;;;2.38;;
73276;SDS011;61501;43.316;5.372;2023-02-01T09:27:42;10.82;;;2.58;;
73276;SDS011;61501;43.316;5.372;2023-02-01T09:30:08;5.28;;;2.60;;
73276;SDS011;61501;43.316;5.372;2023-02-01T09:32:35;23.00;;;3.28;;
73276;SDS011;61501;43.316;5.372;2023-02-01T09:35:01;14.07;;;2.85;;
73276;SDS011;61501;43.316;5.372;2023-02-01T09:37:27;6.10;;;2.40;;
73276;SDS011;61501;43.316;5.372;2023-02-01T09:39:52;11.32;;;2.55;;
73276;SDS011;61501;43.316;5.372;2023-02-01T09:47:53;6.35;;;2.85;;
73276;SDS011;61501;43.316;5.372;2023-02-01T09:50:24;12.95;;;2.97;;
73276;SDS011;61501;43.316;5.372;2023-02-01T09:53:05;6.43;;;2.63;;
73276;SDS011;61501;43.316;5.372;2023-02-01T09:55:45;8.65;;;2.38;;
73276;SDS011;61501;43.316;5.372;2023-02-01T10:01:22;12.35;;;2.40;;
73276;SDS011;61501;43.316;5.372;2023-02-01T10:03:50;4.75;;;2.22;;
73276;SDS011;61501;43.316;5.372;2023-02-01T10:12:25;14.23;;;2.72;;
73276;SDS011;61501;43.316;5.372;2023-02-01T10:15:18;7.00;;;2.83;;
73276;SDS011;61501;43.316;5.372;2023-02-01T10:21:19;14.23;;;2.55;;
73276;SDS011;61501;43.316;5.372;2023-02-01T10:23:37;17.67;;;3.92;;
73276;SDS011;61501;43.316;5.372;2023-02-01T10:26:12;8.15;;;2.45;;
73276;SDS011;61501;43.316;5.372;2023-02-01T10:28:44;5.55;;;2.40;;
73276;SDS011;61501;43.316;5.372;2023-02-01T10:31:14;5.85;;;2.25;;
73276;SDS011;61501;43.316;5.372;2023-02-01T10:33:42;5.45;;;2.25;;
73276;SDS011;61501;43.316;5.372;2023-02-01T10:36:15;17.17;;;2.70;;
73276;SDS011;61501;43.316;5.372;2023-02-01T10:38:44;9.13;;;2.70;;
73276;SDS011;61501;43.316;5.372;2023-02-01T10:41:31;8.82;;;2.17;;
73276;SDS011;61501;43.316;5.372;2023-02-01T10:43:59;6.10;;;1.90;;
73276;SDS011;61501;43.316;5.372;2023-02-01T10:46:29;23.25;;;3.70;;
73276;SDS011;61501;43.316;5.372;2023-02-01T10:48:56;6.10;;;1.75;;
73276;SDS011;61501;43.316;5.372;2023-02-01T10:51:47;7.53;;;1.80;;
73276;SDS011;61501;43.316;5.372;2023-02-01T10:54:38;5.53;;;1.95;;
73276;SDS011;61501;43.316;5.372;2023-02-01T10:57:20;3.97;;;1.70;;
73276;SDS011;61501;43.316;5.372;2023-02-01T10:59:46;12.35;;;2.53;;
73276;SDS011;61501;43.316;5.372;2023-02-01T11:05:01;7.25;;;2.40;;
73276;SDS011;61501;43.316;5.372;2023-02-01T11:07:34;4.88;;;2.50;;
73276;SDS011;61501;43.316;5.372;2023-02-01T11:10:02;5.13;;;1.90;;
73276;SDS011;61501;43.316;5.372;2023-02-01T11:12:29;5.68;;;2.17;;
73276;SDS011;61501;43.316;5.372;2023-02-01T11:15:12;6.47;;;2.20;;
73276;SDS011;61501;43.316;5.372;2023-02-01T11:17:49;5.82;;;1.98;;
73276;SDS011;61501;43.316;5.372;2023-02-01T11:23:02;3.58;;;1.80;;
73276;SDS011;61501;43.316;5.372;2023-02-01T11:25:28;4.70;;;1.60;;
73276;SDS011;61501;43.316;5.372;2023-02-01T11:27:54;3.72;;;1.85;;
73276;SDS011;61501;43.316;5.372;2023-02-01T11:30:40;5.95;;;1.90;;
73276;SDS011;61501;43.316;5.372;2023-02-01T11:33:12;2.72;;;1.67;;
73276;SDS011;61501;43.316;5.372;2023-02-01T11:35:41;4.97;;;1.52;;
73276;SDS011;61501;43.316;5.372;2023-02-01T11:38:11;6.65;;;2.22;;
73276;SDS011;61501;43.316;5.372;2023-02-01T11:40:54;7.95;;;2.70;;
73276;SDS011;61501;43.316;5.372;2023-02-01T11:43:26;6.50;;;2.42;;
73276;SDS011;61501;43.316;5.372;2023-02-01T11:46:00;3.15;;;2.13;;
73276;SDS011;61501;43.316;5.372;2023-02-01T11:48:29;8.07;;;2.22;;
73276;SDS011;61501;43.316;5.372;2023-02-01T11:53:45;3.28;;;1.80;;
73276;SDS011;61501;43.316;5.372;2023-02-01T12:07:23;7.97;;;1.80;;
73276;SDS011;61501;43.316;5.372;2023-02-01T12:15:40;6.70;;;1.67;;
73276;SDS011;61501;43.316;5.372;2023-02-01T12:18:17;10.43;;;1.77;;
73276;SDS011;61501;43.316;5.372;2023-02-01T12:30:14;6.80;;;1.55;;
73276;SDS011;61501;43.316;5.372;2023-02-01T12:35:35;37.25;;;5.70;;
73276;SDS011;61501;43.316;5.372;2023-02-01T12:46:31;9.27;;;1.45;;
73276;SDS011;61501;43.316;5.372;2023-02-01T12:49:09;11.88;;;1.83;;
73276;SDS011;61501;43.316;5.372;2023-02-01T12:51:41;4.95;;;1.13;;
73276;SDS011;61501;43.316;5.372;2023-02-01T12:56:56;4.60;;;1.83;;
73276;SDS011;61501;43.316;5.372;2023-02-01T13:01:56;6.28;;;2.20;;
73276;SDS011;61501;43.316;5.372;2023-02-01T13:07:18;7.05;;;2.00;;
73276;SDS011;61501;43.316;5.372;2023-02-01T13:09:51;7.80;;;1.73;;
73276;SDS011;61501;43.316;5.372;2023-02-01T13:12:49;17.38;;;2.13;;
73276;SDS011;61501;43.316;5.372;2023-02-01T13:15:28;10.90;;;1.48;;
73276;SDS011;61501;43.316;5.372;2023-02-01T13:17:58;11.25;;;1.30;;
73276;SDS011;61501;43.316;5.372;2023-02-01T13:20:31;5.63;;;1.13;;
73276;SDS011;61501;43.316;5.372;2023-02-01T13:23:11;9.05;;;1.13;;
73276;SDS011;61501;43.316;5.372;2023-02-01T13:25:46;9.43;;;1.48;;
73276;SDS011;61501;43.316;5.372;2023-02-01T13:28:36;8.88;;;1.50;;
73276;SDS011;61501;43.316;5.372;2023-02-01T13:42:41;5.65;;;1.85;;
73276;SDS011;61501;43.316;5.372;2023-02-01T13:45:23;7.60;;;1.35;;
73276;SDS011;61501;43.316;5.372;2023-02-01T13:47:53;8.35;;;1.48;;
73276;SDS011;61501;43.316;5.372;2023-02-01T13:50:27;12.18;;;1.40;;
73276;SDS011;61501;43.316;5.372;2023-02-01T13:55:38;12.80;;;1.67;;
73276;SDS011;61501;43.316;5.372;2023-02-01T13:58:15;6.75;;;1.10;;
73276;SDS011;61501;43.316;5.372;2023-02-01T14:00:47;18.55;;;2.05;;
73276;SDS011;61501;43.316;5.372;2023-02-01T14:03:16;26.05;;;2.40;;
73276;SDS011;61501;43.316;5.372;2023-02-01T14:10:57;13.68;;;1.75;;
73276;SDS011;61501;43.316;5.372;2023-02-01T14:24:32;9.95;;;1.30;;
73276;SDS011;61501;43.316;5.372;2023-02-01T14:29:09;11.57;;;2.03;;
73276;SDS011;61501;43.316;5.372;2023-02-01T14:34:19;7.78;;;1.38;;
73276;SDS011;61501;43.316;5.372;2023-02-01T14:39:32;10.85;;;1.80;;
73276;SDS011;61501;43.316;5.372;2023-02-01T14:42:01;12.63;;;2.58;;
73276;SDS011;61501;43.316;5.372;2023-02-01T14:44:30;9.13;;;1.85;;
73276;SDS011;61501;43.316;5.372;2023-02-01T14:49:31;12.07;;;2.00;;
73276;SDS011;61501;43.316;5.372;2023-02-01T14:51:59;9.52;;;1.90;;
73276;SDS011;61501;43.316;5.372;2023-02-01T14:54:30;7.05;;;2.00;;
73276;SDS011;61501;43.316;5.372;2023-02-01T14:56:56;8.35;;;2.65;;
73276;SDS011;61501;43.316;5.372;2023-02-01T14:59:23;8.25;;;2.10;;
73276;SDS011;61501;43.316;5.372;2023-02-01T15:01:58;5.88;;;1.30;;
73276;SDS011;61501;43.316;5.372;2023-02-01T15:04:26;5.70;;;1.13;;
73276;SDS011;61501;43.316;5.372;2023-02-01T15:06:53;4.95;;;1.25;;
73276;SDS011;61501;43.316;5.372;2023-02-01T15:09:32;8.43;;;1.63;;
73276;SDS011;61501;43.316;5.372;2023-02-01T15:12:03;5.93;;;1.60;;
73276;SDS011;61501;43.316;5.372;2023-02-01T15:14:36;4.63;;;1.10;;
73276;SDS011;61501;43.316;5.372;2023-02-01T15:17:16;8.88;;;1.70;;
73276;SDS011;61501;43.316;5.372;2023-02-01T15:22:22;4.15;;;1.27;;
73276;SDS011;61501;43.316;5.372;2023-02-01T15:24:52;7.90;;;1.38;;
73276;SDS011;61501;43.316;5.372;2023-02-01T15:27:19;14.68;;;1.50;;
73276;SDS011;61501;43.316;5.372;2023-02-01T15:29:46;8.77;;;1.67;;
73276;SDS011;61501;43.316;5.372;2023-02-01T15:32:30;4.38;;;1.30;;
73276;SDS011;61501;43.316;5.372;2023-02-01T15:34:58;11.98;;;1.58;;
73276;SDS011;61501;43.316;5.372;2023-02-01T15:37:25;7.78;;;1.40;;
73276;SDS011;61501;43.316;5.372;2023-02-01T15:42:46;6.80;;;1.73;;
73276;SDS011;61501;43.316;5.372;2023-02-01T15:45:19;9.27;;;1.60;;
73276;SDS011;61501;43.316;5.372;2023-02-01T15:47:49;7.45;;;1.70;;
73276;SDS011;61501;43.316;5.372;2023-02-01T15:50:20;9.00;;;1.30;;
73276;SDS011;61501;43.316;5.372;2023-02-01T15:52:48;16.42;;;2.40;;
73276;SDS011;61501;43.316;5.372;2023-02-01T15:58:08;8.05;;;1.60;;
73276;SDS011;61501;43.316;5.372;2023-02-01T16:00:44;11.73;;;1.77;;
73276;SDS011;61501;43.316;5.372;2023-02-01T16:03:33;7.50;;;1.60;;
73276;SDS011;61501;43.316;5.372;2023-02-01T16:06:08;3.13;;;1.45;;
73276;SDS011;61501;43.316;5.372;2023-02-01T16:08:52;7.72;;;2.00;;
73276;SDS011;61501;43.316;5.372;2023-02-01T16:11:25;6.20;;;1.80;;
73276;SDS011;61501;43.316;5.372;2023-02-01T16:13:53;5.60;;;1.70;;
73276;SDS011;61501;43.316;5.372;2023-02-01T16:16:18;10.82;;;2.17;;
73276;SDS011;61501;43.316;5.372;2023-02-01T16:18:44;6.15;;;1.38;;
73276;SDS011;61501;43.316;5.372;2023-02-01T16:21:10;5.05;;;1.65;;
73276;SDS011;61501;43.316;5.372;2023-02-01T16:23:36;4.15;;;1.60;;
73276;SDS011;61501;43.316;5.372;2023-02-01T16:26:02;8.80;;;1.48;;
73276;SDS011;61501;43.316;5.372;2023-02-01T16:28:28;9.07;;;1.70;;
73276;SDS011;61501;43.316;5.372;2023-02-01T16:30:54;7.10;;;1.50;;
73276;SDS011;61501;43.316;5.372;2023-02-01T16:33:20;6.43;;;2.00;;
73276;SDS011;61501;43.316;5.372;2023-02-01T16:35:47;5.15;;;1.70;;
73276;SDS011;61501;43.316;5.372;2023-02-01T16:38:15;8.30;;;1.75;;
73276;SDS011;61501;43.316;5.372;2023-02-01T16:40:46;3.83;;;1.55;;
73276;SDS011;61501;43.316;5.372;2023-02-01T16:43:23;4.80;;;1.55;;
73276;SDS011;61501;43.316;5.372;2023-02-01T16:45:51;7.63;;;1.63;;
73276;SDS011;61501;43.316;5.372;2023-02-01T16:48:25;3.78;;;1.60;;
73276;SDS011;61501;43.316;5.372;2023-02-01T16:50:53;3.22;;;1.83;;
73276;SDS011;61501;43.316;5.372;2023-02-01T16:53:25;5.40;;;1.83;;
73276;SDS011;61501;43.316;5.372;2023-02-01T16:55:52;3.45;;;1.55;;
73276;SDS011;61501;43.316;5.372;2023-02-01T16:58:19;7.65;;;2.00;;
73276;SDS011;61501;43.316;5.372;2023-02-01T17:00:46;3.40;;;1.63;;
73276;SDS011;61501;43.316;5.372;2023-02-01T17:03:13;5.80;;;1.50;;
73276;SDS011;61501;43.316;5.372;2023-02-01T17:05:42;4.50;;;1.35;;
73276;SDS011;61501;43.316;5.372;2023-02-01T17:08:18;6.85;;;1.92;;
73276;SDS011;61501;43.316;5.372;2023-02-01T17:10:50;3.00;;;1.70;;
73276;SDS011;61501;43.316;5.372;2023-02-01T17:13:16;6.20;;;1.63;;
73276;SDS011;61501;43.316;5.372;2023-02-01T17:16:01;5.82;;;1.95;;
73276;SDS011;61501;43.316;5.372;2023-02-01T17:18:29;5.68;;;2.00;;
73276;SDS011;61501;43.316;5.372;2023-02-01T17:20:58;6.38;;;2.20;;
73276;SDS011;61501;43.316;5.372;2023-02-01T17:23:26;7.97;;;2.03;;
73276;SDS011;61501;43.316;5.372;2023-02-01T17:25:52;3.75;;;2.15;;
73276;SDS011;61501;43.316;5.372;2023-02-01T17:28:18;4.20;;;2.35;;
73276;SDS011;61501;43.316;5.372;2023-02-01T17:30:44;3.75;;;1.88;;
73276;SDS011;61501;43.316;5.372;2023-02-01T17:33:21;4.65;;;2.10;;
73276;SDS011;61501;43.316;5.372;2023-02-01T17:35:50;4.28;;;1.88;;
73276;SDS011;61501;43.316;5.372;2023-02-01T17:38:17;2.95;;;2.20;;
73276;SDS011;61501;43.316;5.372;2023-02-01T17:40:43;3.85;;;3.00;;